createdAt,value
2022-08-25T00:00:30.413Z,3.85
2022-08-25T00:03:04.574Z,4.43
2022-08-25T00:05:38.136Z,4.00
2022-08-25T00:08:10.659Z,4.85
2022-08-25T00:11:02.889Z,7.32
2022-08-25T00:13:35.319Z,3.85
2022-08-25T00:16:08.361Z,4.03
2022-08-25T00:18:46.999Z,3.35
2022-08-25T00:21:22.810Z,4.53
2022-08-25T00:23:54.453Z,3.80
2022-08-25T00:26:27.250Z,3.28
2022-08-25T00:29:01.665Z,3.25
2022-08-25T00:31:38.176Z,4.90
2022-08-25T00:34:17.046Z,4.70
2022-08-25T00:36:51.927Z,3.70
2022-08-25T00:39:25.040Z,4.10
2022-08-25T00:41:59.365Z,6.05
2022-08-25T00:44:36.415Z,3.20
2022-08-25T00:47:10.311Z,3.60
2022-08-25T00:49:48.722Z,3.13
2022-08-25T00:52:25.413Z,4.80
2022-08-25T00:55:00.963Z,3.33
2022-08-25T00:57:39.897Z,3.17
2022-08-25T01:00:17.521Z,3.63
2022-08-25T01:02:49.127Z,4.53
2022-08-25T01:05:22.670Z,4.65
2022-08-25T01:07:58.553Z,4.57
2022-08-25T01:10:32.299Z,3.83
2022-08-25T01:13:14.622Z,3.33
2022-08-25T01:15:48.264Z,3.60
2022-08-25T01:18:22.008Z,3.70
2022-08-25T01:20:59.934Z,3.50
2022-08-25T01:23:31.046Z,6.22
2022-08-25T01:26:08.338Z,6.03
2022-08-25T01:29:01.153Z,4.47
2022-08-25T01:31:33.760Z,4.00
2022-08-25T01:34:07.608Z,5.13
2022-08-25T01:39:54.400Z,5.35
2022-08-25T01:42:45.677Z,5.45
2022-08-25T01:45:17.761Z,9.23
2022-08-25T01:47:57.008Z,4.40
2022-08-25T01:50:28.629Z,4.40
2022-08-25T01:56:35.182Z,5.37
2022-08-25T01:59:07.161Z,4.65
2022-08-25T02:01:38.226Z,4.17
2022-08-25T02:04:09.531Z,4.90
2022-08-25T02:06:41.725Z,6.40
2022-08-25T02:09:15.331Z,4.53
2022-08-25T02:11:51.167Z,5.63
2022-08-25T02:14:22.961Z,7.03
2022-08-25T02:16:56.529Z,6.50
2022-08-25T02:19:31.772Z,7.23
2022-08-25T02:24:35.940Z,5.43
2022-08-25T02:27:09.989Z,5.37
2022-08-25T02:29:41.225Z,6.30
2022-08-25T02:32:12.570Z,6.47
2022-08-25T02:34:44.534Z,8.77
2022-08-25T02:40:24.145Z,5.83
2022-08-25T02:46:51.849Z,5.57
2022-08-25T02:49:46.412Z,5.40
2022-08-25T03:11:57.787Z,7.97
2022-08-25T03:14:29.291Z,17.63
2022-08-25T03:17:00.572Z,12.43
2022-08-25T03:19:32.060Z,16.07
2022-08-25T03:22:15.389Z,8.37
2022-08-25T03:24:59.724Z,13.23
2022-08-25T03:27:42.014Z,7.20
2022-08-25T03:30:28.022Z,5.53
2022-08-25T03:32:59.775Z,5.70
2022-08-25T03:38:41.139Z,5.27
2022-08-25T03:41:20.536Z,4.87
2022-08-25T03:44:18.757Z,4.50
2022-08-25T03:46:57.178Z,6.33
2022-08-25T03:52:15.000Z,6.23
2022-08-25T03:57:48.353Z,5.43
2022-08-25T04:00:26.620Z,7.37
2022-08-25T04:03:11.125Z,7.60
2022-08-25T04:05:52.960Z,7.53
2022-08-25T04:08:24.236Z,5.80
2022-08-25T04:10:56.022Z,7.20
2022-08-25T04:13:42.750Z,9.13
2022-08-25T04:16:16.269Z,8.63
2022-08-25T04:18:47.951Z,7.47
2022-08-25T04:21:22.980Z,5.73
2022-08-25T04:23:56.026Z,5.50
2022-08-25T04:26:28.908Z,6.23
2022-08-25T04:29:04.854Z,6.93
2022-08-25T04:31:36.276Z,6.93
2022-08-25T04:34:30.793Z,8.10
2022-08-25T04:37:05.293Z,6.67
2022-08-25T04:39:41.854Z,5.27
2022-08-25T04:45:29.097Z,7.97
2022-08-25T04:48:14.136Z,7.03
2022-08-25T04:50:45.342Z,8.70
2022-08-25T04:53:17.880Z,7.97
2022-08-25T04:55:52.743Z,5.77
2022-08-25T04:58:23.797Z,8.53
2022-08-25T05:01:06.434Z,6.93
2022-08-25T05:03:37.786Z,5.23
2022-08-25T05:06:12.824Z,5.57
2022-08-25T05:08:47.186Z,7.57
2022-08-25T05:11:20.550Z,6.63
2022-08-25T05:13:56.071Z,6.73
2022-08-25T05:16:31.743Z,5.63
2022-08-25T05:19:03.017Z,7.00
2022-08-25T05:21:34.577Z,6.70
2022-08-25T05:24:06.308Z,13.03
2022-08-25T05:26:39.550Z,5.73
2022-08-25T05:29:12.108Z,5.03
2022-08-25T05:31:50.295Z,6.10
2022-08-25T05:34:23.297Z,5.70
2022-08-25T05:36:54.474Z,5.07
2022-08-25T05:39:26.867Z,6.80
2022-08-25T05:41:58.342Z,5.53
2022-08-25T05:44:34.155Z,6.83
2022-08-25T05:47:08.085Z,5.03
2022-08-25T05:49:39.556Z,5.33
2022-08-25T05:52:12.509Z,6.57
2022-08-25T05:54:46.768Z,7.43
2022-08-25T05:57:18.108Z,6.17
2022-08-25T05:59:49.706Z,6.93
2022-08-25T06:02:39.532Z,6.77
2022-08-25T06:08:15.381Z,5.77
2022-08-25T06:10:48.320Z,5.57
2022-08-25T06:13:26.891Z,5.83
2022-08-25T06:16:02.070Z,7.40
2022-08-25T06:18:35.205Z,5.87
2022-08-25T06:21:14.431Z,8.93
2022-08-25T06:23:45.513Z,5.60
2022-08-25T06:26:21.254Z,6.27
2022-08-25T06:28:53.577Z,6.13
2022-08-25T06:31:26.191Z,5.30
2022-08-25T06:33:59.737Z,6.43
2022-08-25T06:36:31.197Z,5.27
2022-08-25T06:39:02.160Z,5.77
2022-08-25T06:41:36.865Z,5.30
2022-08-25T06:44:09.926Z,5.47
2022-08-25T06:46:41.399Z,5.70
2022-08-25T06:49:16.259Z,6.33
2022-08-25T06:51:47.816Z,5.57
2022-08-25T06:54:20.441Z,5.63
2022-08-25T06:57:19.496Z,5.53
2022-08-25T06:59:53.529Z,6.50
2022-08-25T07:02:24.997Z,9.50
2022-08-25T07:04:57.724Z,6.73
2022-08-25T07:07:43.651Z,6.90
2022-08-25T07:10:16.562Z,5.97
2022-08-25T07:12:52.382Z,7.00
2022-08-25T07:15:24.162Z,6.03
2022-08-25T07:17:55.441Z,6.00
2022-08-25T07:20:30.813Z,6.37
2022-08-25T07:23:02.083Z,7.60
2022-08-25T07:25:34.157Z,6.37
2022-08-25T07:28:06.545Z,6.07
2022-08-25T07:30:41.473Z,6.13
2022-08-25T07:33:13.955Z,8.40
2022-08-25T07:35:50.378Z,5.57
2022-08-25T07:38:23.398Z,6.77
2022-08-25T07:40:57.952Z,8.33
2022-08-25T07:43:29.189Z,6.17
2022-08-25T07:46:00.325Z,9.60
2022-08-25T07:48:32.144Z,6.63
2022-08-25T07:51:12.191Z,5.83
2022-08-25T07:53:45.062Z,6.00
2022-08-25T07:56:18.355Z,7.93
2022-08-25T07:58:50.982Z,9.07
2022-08-25T08:01:23.939Z,8.40
2022-08-25T08:03:56.876Z,6.33
2022-08-25T08:06:32.092Z,8.03
2022-08-25T08:09:03.849Z,6.43
2022-08-25T08:11:45.160Z,8.07
2022-08-25T08:14:25.222Z,6.77
2022-08-25T08:16:56.655Z,6.20
2022-08-25T08:19:28.543Z,8.93
2022-08-25T08:22:03.280Z,7.33
2022-08-25T08:24:44.871Z,6.27
2022-08-25T08:27:27.290Z,7.60
2022-08-25T08:35:42.895Z,8.37
2022-08-25T08:38:22.321Z,7.60
2022-08-25T08:41:26.841Z,7.70
2022-08-25T08:44:06.611Z,8.37
2022-08-25T08:46:46.652Z,9.07
2022-08-25T08:49:26.777Z,7.57
2022-08-25T08:52:04.816Z,7.00
2022-08-25T08:54:41.869Z,6.37
2022-08-25T08:57:17.859Z,6.83
2022-08-25T08:59:55.098Z,8.53
2022-08-25T09:02:39.396Z,10.80
2022-08-25T09:05:25.661Z,7.97
2022-08-25T09:08:01.865Z,8.27
2022-08-25T09:10:47.347Z,6.30
2022-08-25T09:13:27.090Z,5.73
2022-08-25T09:16:34.487Z,7.33
2022-08-25T09:19:23.669Z,9.83
2022-08-25T09:21:59.671Z,6.23
2022-08-25T09:24:43.029Z,6.37
2022-08-25T09:27:27.852Z,6.40
2022-08-25T09:30:10.497Z,6.77
2022-08-25T09:32:49.029Z,6.63
2022-08-25T09:35:27.188Z,8.73
2022-08-25T09:38:02.828Z,6.60
2022-08-25T09:40:36.649Z,7.30
2022-08-25T09:43:26.177Z,8.57
2022-08-25T09:46:04.788Z,6.67
2022-08-25T09:48:40.815Z,9.97
2022-08-25T09:51:21.739Z,6.50
2022-08-25T09:53:58.169Z,6.93
2022-08-25T09:56:32.760Z,10.03
2022-08-25T09:59:34.709Z,8.93
2022-08-25T10:02:27.701Z,6.97
2022-08-25T10:05:00.537Z,7.67
2022-08-25T10:07:36.558Z,8.37
2022-08-25T10:10:19.496Z,7.60
2022-08-25T10:12:51.734Z,6.60
2022-08-25T10:15:30.388Z,8.97
2022-08-25T10:18:25.754Z,7.73
2022-08-25T10:21:11.537Z,11.23
2022-08-25T10:23:46.571Z,9.23
2022-08-25T10:26:35.023Z,6.90
2022-08-25T10:29:26.597Z,6.53
2022-08-25T10:32:04.028Z,6.43
2022-08-25T10:34:46.735Z,6.73
2022-08-25T10:37:33.563Z,6.73
2022-08-25T10:40:16.949Z,8.53
2022-08-25T10:42:59.586Z,6.73
2022-08-25T10:45:48.810Z,6.80
2022-08-25T10:48:46.124Z,7.77
2022-08-25T10:51:45.952Z,8.97
2022-08-25T10:54:33.028Z,8.10
2022-08-25T10:57:16.596Z,7.27
2022-08-25T10:59:58.768Z,6.53
2022-08-25T11:03:03.249Z,6.00
2022-08-25T11:05:44.748Z,7.03
2022-08-25T11:08:22.430Z,6.53
2022-08-25T11:10:58.903Z,7.00
2022-08-25T11:13:42.019Z,8.73
2022-08-25T11:16:18.555Z,7.13
2022-08-25T11:18:59.447Z,6.50
2022-08-25T11:21:41.819Z,6.87
2022-08-25T11:24:24.993Z,6.90
2022-08-25T11:27:00.342Z,6.10
2022-08-25T11:29:37.572Z,10.73
2022-08-25T11:32:12.183Z,6.27
2022-08-25T11:34:43.969Z,8.63
2022-08-25T11:37:25.285Z,6.23
2022-08-25T11:40:26.273Z,9.23
2022-08-25T11:43:08.070Z,9.80
2022-08-25T11:46:01.866Z,8.37
2022-08-25T11:48:45.113Z,6.20
2022-08-25T11:51:36.478Z,7.53
2022-08-25T11:54:26.518Z,9.50
2022-08-25T11:57:04.016Z,5.87
2022-08-25T12:00:11.133Z,8.13
2022-08-25T12:02:46.181Z,7.00
2022-08-25T12:05:50.031Z,7.63
2022-08-25T12:08:57.582Z,7.73
2022-08-25T12:11:55.710Z,7.23
2022-08-25T12:14:54.362Z,6.87
2022-08-25T12:17:41.300Z,6.50
2022-08-25T12:20:14.613Z,7.40
2022-08-25T12:22:58.503Z,5.93
2022-08-25T12:25:53.787Z,8.03
2022-08-25T12:28:59.944Z,6.77
2022-08-25T12:32:09.275Z,6.40
2022-08-25T12:35:24.052Z,7.37
2022-08-25T12:38:07.714Z,7.23
2022-08-25T12:40:42.632Z,7.67
2022-08-25T12:43:25.978Z,8.57
2022-08-25T12:46:18.691Z,8.63
2022-08-25T12:49:04.200Z,8.47
2022-08-25T12:51:58.985Z,6.60
2022-08-25T12:54:42.409Z,7.37
2022-08-25T12:57:34.883Z,7.40
2022-08-25T13:00:18.605Z,10.47
2022-08-25T13:03:30.141Z,6.60
2022-08-25T13:06:31.366Z,6.97
2022-08-25T13:09:29.550Z,7.13
2022-08-25T13:12:11.829Z,13.70
2022-08-25T13:14:45.538Z,9.23
2022-08-25T13:17:29.294Z,7.90
2022-08-25T13:20:22.165Z,7.57
2022-08-25T13:23:00.298Z,6.97
2022-08-25T13:25:33.976Z,10.07
2022-08-25T13:28:11.154Z,7.27
2022-08-25T13:30:42.795Z,7.80
2022-08-25T13:33:22.506Z,8.23
2022-08-25T13:36:17.034Z,7.70
2022-08-25T13:38:51.918Z,7.37
2022-08-25T13:41:29.525Z,7.00
2022-08-25T13:44:05.153Z,7.90
2022-08-25T13:46:37.044Z,7.30
2022-08-25T13:49:11.258Z,7.90
2022-08-25T13:51:54.345Z,6.90
2022-08-25T13:54:35.238Z,7.80
2022-08-25T13:57:19.431Z,9.33
2022-08-25T13:59:55.265Z,7.70
2022-08-25T14:02:45.935Z,6.90
2022-08-25T14:05:36.061Z,8.50
2022-08-25T14:08:16.008Z,7.00
2022-08-25T14:11:15.078Z,9.23
2022-08-25T14:13:48.426Z,7.63
2022-08-25T14:16:25.759Z,6.87
2022-08-25T14:18:59.506Z,6.60
2022-08-25T14:21:32.117Z,9.70
2022-08-25T14:24:07.993Z,6.57
2022-08-25T14:26:54.247Z,8.50
2022-08-25T14:29:26.228Z,7.87
2022-08-25T14:31:58.525Z,7.20
2022-08-25T14:34:33.691Z,8.70
2022-08-25T14:37:04.855Z,6.77
2022-08-25T14:39:46.242Z,7.57
2022-08-25T14:42:21.084Z,7.77
2022-08-25T14:44:56.579Z,10.33
2022-08-25T14:47:28.225Z,12.00
2022-08-25T14:50:03.749Z,13.60
2022-08-25T14:52:34.875Z,15.83
2022-08-25T14:55:31.369Z,12.17
2022-08-25T14:58:06.854Z,11.93
2022-08-25T15:00:40.522Z,12.77
2022-08-25T15:03:22.564Z,12.13
2022-08-25T15:05:54.128Z,13.10
2022-08-25T15:08:43.886Z,14.87
2022-08-25T15:11:27.670Z,12.23
2022-08-25T15:17:17.376Z,12.37
2022-08-25T15:19:51.289Z,11.70
2022-08-25T15:22:29.601Z,10.93
2022-08-25T15:25:15.389Z,9.47
2022-08-25T15:27:50.012Z,9.73
2022-08-25T15:30:31.914Z,9.20
2022-08-25T15:33:13.473Z,10.17
2022-08-25T15:35:45.894Z,8.40
2022-08-25T15:38:23.951Z,7.87
2022-08-25T15:43:57.591Z,7.97
2022-08-25T15:46:42.327Z,9.27
2022-08-25T15:49:23.447Z,10.60
2022-08-25T15:51:56.798Z,8.53
2022-08-25T15:54:40.169Z,9.23
2022-08-25T15:57:18.042Z,8.80
2022-08-25T16:02:46.290Z,11.30
2022-08-25T16:05:18.412Z,8.77
2022-08-25T16:07:55.007Z,10.53
2022-08-25T16:10:39.455Z,9.00
2022-08-25T16:13:25.985Z,8.20
2022-08-25T16:15:58.180Z,9.43
2022-08-25T16:18:31.451Z,8.80
2022-08-25T16:21:02.781Z,9.93
2022-08-25T16:23:44.156Z,8.90
2022-08-25T16:26:16.126Z,9.57
2022-08-25T16:28:49.651Z,11.60
2022-08-25T16:31:20.987Z,8.03
2022-08-25T16:33:58.190Z,9.90
2022-08-25T16:36:45.819Z,8.60
2022-08-25T16:39:18.532Z,10.80
2022-08-25T16:41:50.114Z,9.93
2022-08-25T16:44:39.424Z,10.57
2022-08-25T16:47:27.111Z,10.97
2022-08-25T16:50:01.409Z,9.53
2022-08-25T16:52:50.116Z,9.70
2022-08-25T16:55:25.752Z,9.00
2022-08-25T16:57:58.336Z,14.17
2022-08-25T17:00:32.039Z,11.77
2022-08-25T17:03:22.284Z,12.67
2022-08-25T17:06:17.479Z,10.70
2022-08-25T17:08:50.514Z,11.73
2022-08-25T17:11:26.212Z,11.30
2022-08-25T17:14:00.517Z,9.70
2022-08-25T17:16:35.612Z,10.57
2022-08-25T17:19:14.362Z,10.27
2022-08-25T17:22:06.093Z,11.03
2022-08-25T17:24:40.535Z,15.40
2022-08-25T17:27:13.673Z,12.23
2022-08-25T17:29:47.237Z,9.03
2022-08-25T17:32:19.373Z,11.23
2022-08-25T17:35:01.753Z,8.97
2022-08-25T17:37:39.941Z,10.43
2022-08-25T17:40:12.849Z,12.50
2022-08-25T17:42:45.228Z,11.90
2022-08-25T17:45:16.719Z,12.20
2022-08-25T17:47:48.832Z,10.30
2022-08-25T17:50:20.960Z,12.87
2022-08-25T17:52:59.142Z,9.67
2022-08-25T17:55:31.330Z,11.37
2022-08-25T17:58:04.090Z,10.07
2022-08-25T18:00:39.970Z,9.63
2022-08-25T18:03:15.989Z,11.03
2022-08-25T18:05:48.251Z,11.50
2022-08-25T18:08:21.853Z,9.17
2022-08-25T18:11:08.425Z,13.67
2022-08-25T18:13:41.437Z,11.53
2022-08-25T18:16:16.785Z,10.47
2022-08-25T18:18:49.417Z,9.73
2022-08-25T18:21:30.621Z,10.17
2022-08-25T18:24:04.957Z,11.40
2022-08-25T18:26:36.397Z,14.13
2022-08-25T18:29:07.758Z,12.63
2022-08-25T18:31:39.074Z,10.73
2022-08-25T18:34:13.607Z,13.13
2022-08-25T18:40:00.955Z,11.37
2022-08-25T18:42:33.038Z,13.00
2022-08-25T18:45:06.371Z,9.27
2022-08-25T18:47:38.328Z,12.47
2022-08-25T18:50:10.810Z,9.20
2022-08-25T18:52:41.899Z,8.17
2022-08-25T18:55:16.860Z,11.70
2022-08-25T18:57:52.403Z,11.60
2022-08-25T19:03:24.516Z,9.43
2022-08-25T19:05:59.028Z,8.60
2022-08-25T19:08:30.302Z,12.13
2022-08-25T19:11:03.835Z,12.90
2022-08-25T19:13:37.517Z,8.60
2022-08-25T19:16:17.782Z,10.60
2022-08-25T19:18:52.284Z,8.30
2022-08-25T19:21:24.848Z,6.63
2022-08-25T19:23:56.456Z,7.40
2022-08-25T19:26:31.543Z,8.60
2022-08-25T19:29:02.834Z,7.27
2022-08-25T19:31:35.899Z,6.10
2022-08-25T19:34:07.980Z,5.57
2022-08-25T19:36:40.003Z,8.60
2022-08-25T19:39:13.656Z,10.93
2022-08-25T19:41:50.189Z,7.57
2022-08-25T19:44:21.546Z,9.87
2022-08-25T19:46:53.197Z,5.83
2022-08-25T19:49:27.196Z,6.73
2022-08-25T19:52:03.963Z,7.37
2022-08-25T19:54:37.000Z,5.47
2022-08-25T19:57:12.223Z,5.97
2022-08-25T19:59:46.412Z,5.50
2022-08-25T20:02:21.776Z,5.13
2022-08-25T20:04:54.569Z,6.37
2022-08-25T20:07:28.686Z,6.57
2022-08-25T20:10:01.820Z,5.67
2022-08-25T20:12:36.609Z,6.00
2022-08-25T20:15:10.113Z,6.40
2022-08-25T20:17:41.780Z,6.27
2022-08-25T20:20:16.659Z,7.47
2022-08-25T20:22:48.600Z,5.90
2022-08-25T20:25:22.196Z,5.80
2022-08-25T20:27:59.641Z,8.30
2022-08-25T20:33:23.139Z,7.77
2022-08-25T20:35:54.846Z,8.33
2022-08-25T20:38:28.063Z,6.30
2022-08-25T20:40:59.321Z,6.50
2022-08-25T20:43:53.012Z,7.40
2022-08-25T20:46:25.419Z,7.07
2022-08-25T20:49:04.754Z,8.98
2022-08-25T20:51:36.279Z,7.90
2022-08-25T20:54:11.189Z,6.53
2022-08-25T20:56:42.393Z,7.77
2022-08-25T20:59:41.184Z,6.70
2022-08-25T21:10:41.166Z,7.18
2022-08-25T21:13:12.476Z,6.38
2022-08-25T21:15:49.549Z,7.40
2022-08-25T21:18:20.876Z,6.40
2022-08-25T21:20:52.815Z,6.57
2022-08-25T21:23:24.581Z,10.82
2022-08-25T21:25:57.542Z,9.50
2022-08-25T21:28:29.443Z,7.72
2022-08-25T21:31:03.098Z,5.88
2022-08-25T21:33:35.803Z,6.72
2022-08-25T21:36:11.319Z,6.20
2022-08-25T21:38:55.491Z,9.35
2022-08-25T21:41:29.938Z,5.82
2022-08-25T21:44:02.393Z,6.15
2022-08-25T21:46:36.254Z,6.18
2022-08-25T21:49:18.832Z,7.03
2022-08-25T21:52:00.331Z,6.57
2022-08-25T21:54:33.073Z,6.55
2022-08-25T21:57:06.332Z,7.05
2022-08-25T21:59:41.849Z,5.72
2022-08-25T22:02:22.348Z,5.22
2022-08-25T22:04:57.584Z,5.40
2022-08-25T22:07:46.675Z,5.13
2022-08-25T22:13:07.313Z,5.38
2022-08-25T22:15:38.573Z,5.55
2022-08-25T22:18:12.254Z,7.03
2022-08-25T22:20:45.406Z,7.20
2022-08-25T22:23:32.774Z,6.05
2022-08-25T22:26:12.206Z,8.38
2022-08-25T22:28:44.161Z,5.18
2022-08-25T22:31:32.481Z,5.40
2022-08-25T22:34:08.702Z,5.63
2022-08-25T22:36:41.505Z,6.85
2022-08-25T22:39:12.876Z,7.25
2022-08-25T22:41:46.916Z,6.65
2022-08-25T22:44:18.340Z,6.65
2022-08-25T22:46:49.646Z,5.43
2022-08-25T22:49:23.923Z,5.65
2022-08-25T22:51:55.554Z,4.72
2022-08-25T22:54:27.337Z,5.10
2022-08-25T22:56:58.437Z,5.10
2022-08-25T22:59:33.199Z,4.70
2022-08-25T23:02:04.945Z,5.07
2022-08-25T23:04:43.528Z,6.03
2022-08-25T23:07:15.353Z,7.55
2022-08-25T23:09:47.276Z,5.75
2022-08-25T23:12:19.103Z,7.00
2022-08-25T23:14:53.382Z,5.88
2022-08-25T23:17:26.304Z,5.70
2022-08-25T23:20:00.471Z,5.60
2022-08-25T23:22:30.460Z,5.88
2022-08-25T23:25:09.980Z,6.88
2022-08-25T23:27:41.344Z,5.22
2022-08-25T23:30:14.045Z,4.60
2022-08-25T23:32:54.871Z,5.20
2022-08-25T23:41:23.613Z,5.95
2022-08-25T23:43:55.739Z,6.85
2022-08-25T23:46:29.981Z,5.50
2022-08-25T23:49:01.569Z,5.00
2022-08-25T23:51:38.836Z,6.07
2022-08-25T23:54:12.326Z,5.72
2022-08-25T23:56:51.388Z,4.88
2022-08-25T23:59:23.962Z,4.50
